Time;durP1;ratioP1;P1;durP2;ratioP2;P2;SDS_P1;SDS_P2;PMS_P1;PMS_P2;Temp;Humidity;BMP_temperature;BMP_pressure;BME280_temperature;BME280_humidity;BME280_pressure;Samples;Min_cycle;Max_cycle;Signal;HPM_P1;HPM_P2
2022/04/21 00:02:22;;;;;;;4.90;2.53;;;13.20;99.20;;;;;;5054438;28;20048;-66
2022/04/21 00:04:48;;;;;;;4.78;3.17;;;13.10;99.60;;;;;;5054423;28;20582;-66
2022/04/21 00:07:14;;;;;;;4.20;2.47;;;13.10;99.90;;;;;;5054450;28;20041;-66
2022/04/21 00:09:39;;;;;;;4.88;2.88;;;13.00;99.90;;;;;;5054240;28;20029;-66
2022/04/21 00:12:05;;;;;;;7.43;3.30;;;13.00;99.90;;;;;;5054353;28;20067;-66
2022/04/21 00:14:31;;;;;;;3.95;3.25;;;13.10;99.80;;;;;;5053791;28;20660;-66
2022/04/21 00:16:57;;;;;;;6.60;3.03;;;13.10;99.80;;;;;;5054234;28;20047;-66
2022/04/21 00:19:23;;;;;;;5.43;2.83;;;13.30;99.90;;;;;;5054163;28;20049;-66
2022/04/21 00:24:33;;;;;;;3.42;2.45;;;13.20;99.50;;;;;;5052914;28;20044;-66
2022/04/21 00:26:59;;;;;;;4.75;3.15;;;13.30;99.20;;;;;;5054081;28;20120;-66
2022/04/21 00:29:24;;;;;;;5.75;3.10;;;13.30;99.10;;;;;;5053983;28;20511;-66
2022/04/21 00:31:50;;;;;;;7.07;3.03;;;13.40;99.30;;;;;;5053834;28;20509;-66
2022/04/21 00:34:18;;;;;;;4.88;3.33;;;13.30;99.50;;;;;;5053753;28;20032;-66
2022/04/21 00:36:45;;;;;;;7.13;2.72;;;13.30;99.90;;;;;;5053528;28;20053;-66
2022/04/21 00:39:11;;;;;;;9.10;3.15;;;13.30;99.90;;;;;;5053664;28;20497;-66
2022/04/21 00:41:37;;;;;;;7.30;2.92;;;13.20;99.90;;;;;;5053768;28;20051;-66
2022/04/21 00:44:03;;;;;;;4.97;3.10;;;13.30;99.90;;;;;;5053666;28;20110;-66
2022/04/21 00:46:29;;;;;;;6.28;2.95;;;13.30;99.90;;;;;;5053544;28;20037;-66
2022/04/21 00:48:56;;;;;;;5.55;2.72;;;13.30;99.90;;;;;;5053288;28;20087;-66
2022/04/21 00:51:24;;;;;;;5.90;2.75;;;13.20;99.90;;;;;;5053219;28;20123;-66
2022/04/21 00:53:50;;;;;;;4.53;2.70;;;13.10;99.90;;;;;;5053419;28;20407;-66
2022/04/21 00:56:15;;;;;;;6.95;2.92;;;13.00;99.90;;;;;;5053435;28;20063;-66
2022/04/21 00:58:43;;;;;;;6.15;2.80;;;13.00;99.90;;;;;;5053512;28;20049;-66
2022/04/21 01:02:46;;;;;;;5.20;3.20;;;13.00;99.90;;;;;;5053554;28;20036;-66
2022/04/21 01:03:56;;;;;;;6.57;3.42;;;13.00;99.90;;;;;;5053074;28;20049;-66
2022/04/21 01:06:23;;;;;;;5.70;3.45;;;13.00;99.90;;;;;;5053128;28;20053;-66
2022/04/21 01:08:49;;;;;;;7.00;3.55;;;13.10;99.90;;;;;;5053082;28;20037;-66
2022/04/21 01:11:16;;;;;;;7.30;3.05;;;13.20;99.90;;;;;;5053209;28;20528;-66
2022/04/21 01:13:42;;;;;;;6.50;3.35;;;13.20;99.90;;;;;;5053181;28;20045;-66
2022/04/21 01:16:08;;;;;;;4.97;3.33;;;13.30;99.90;;;;;;5053378;28;20118;-66
2022/04/21 01:18:34;;;;;;;4.32;3.50;;;13.20;99.90;;;;;;5068198;28;20094;-66
2022/04/21 01:21:00;;;;;;;5.70;3.33;;;13.10;99.90;;;;;;5071574;28;20048;-66
2022/04/21 01:23:26;;;;;;;7.70;3.47;;;13.00;99.90;;;;;;5071750;28;20730;-66
2022/04/21 01:25:52;;;;;;;11.68;3.78;;;13.10;99.90;;;;;;5073147;28;20044;-66
2022/04/21 01:28:19;;;;;;;5.47;3.67;;;13.00;99.90;;;;;;5072989;28;20396;-66
2022/04/21 01:30:45;;;;;;;6.45;3.47;;;13.00;99.90;;;;;;5072970;28;20052;-66
2022/04/21 01:33:10;;;;;;;5.60;3.20;;;12.90;99.90;;;;;;5072913;28;20041;-66
2022/04/21 01:35:37;;;;;;;8.32;3.85;;;12.80;99.90;;;;;;5072760;28;20063;-66
2022/04/21 01:43:32;;;;;;;8.45;3.40;;;13.00;99.90;;;;;;5072908;28;20115;-66
2022/04/21 01:45:57;;;;;;;5.93;3.25;;;12.90;99.90;;;;;;5072840;28;20044;-66
2022/04/21 01:48:24;;;;;;;7.50;4.18;;;12.90;99.90;;;;;;5072806;28;20044;-66
2022/04/21 01:50:49;;;;;;;10.07;3.30;;;12.90;99.90;;;;;;5072817;28;20662;-66
2022/04/21 01:53:15;;;;;;;4.25;3.33;;;12.80;99.90;;;;;;5072812;28;20051;-66
2022/04/21 01:55:41;;;;;;;5.05;3.20;;;;;;;;;;5072734;28;20033;-68
2022/04/21 01:58:08;;;;;;;4.22;3.30;;;12.60;99.90;;;;;;5072577;28;20499;-66
2022/04/21 02:00:33;;;;;;;7.90;3.70;;;12.50;99.90;;;;;;5072714;28;20123;-66
2022/04/21 02:02:59;;;;;;;4.90;3.70;;;12.50;99.90;;;;;;5072625;28;20482;-66
2022/04/21 02:05:25;;;;;;;7.15;3.22;;;12.40;99.90;;;;;;5072547;28;20036;-67
2022/04/21 02:07:52;;;;;;;6.35;2.78;;;12.20;99.90;;;;;;5070891;28;20056;-66
2022/04/21 02:10:19;;;;;;;7.82;2.65;;;12.20;99.90;;;;;;5053605;28;20044;-66
2022/04/21 02:12:45;;;;;;;5.80;2.72;;;12.30;99.90;;;;;;5052589;28;20113;-66
2022/04/21 02:15:12;;;;;;;3.95;2.67;;;12.30;99.90;;;;;;5052493;28;20036;-66
2022/04/21 02:17:39;;;;;;;7.50;2.78;;;12.30;99.90;;;;;;5052263;28;20459;-67
2022/04/21 02:20:08;;;;;;;3.83;2.95;;;12.00;99.90;;;;;;5052251;28;20167;-66
2022/04/21 02:22:35;;;;;;;8.05;2.90;;;11.90;99.90;;;;;;5052333;28;20477;-67
2022/04/21 02:25:06;;;;;;;4.43;2.63;;;11.70;99.90;;;;;;5052278;28;20044;-68
2022/04/21 02:27:32;;;;;;;3.70;2.80;;;11.70;99.90;;;;;;5052715;28;20524;-67
2022/04/21 02:29:59;;;;;;;3.40;2.33;;;11.60;99.90;;;;;;5052375;28;20407;-66
2022/04/21 02:32:25;;;;;;;6.47;3.50;;;11.50;99.90;;;;;;5052086;28;20028;-67
2022/04/21 02:34:53;;;;;;;6.95;3.42;;;11.50;99.90;;;;;;5052395;28;20041;-66
2022/04/21 02:37:21;;;;;;;6.32;3.35;;;11.40;99.90;;;;;;5052212;28;20064;-66
2022/04/21 02:39:48;;;;;;;6.03;2.97;;;11.30;99.90;;;;;;5052223;28;20055;-66
2022/04/21 02:42:13;;;;;;;9.35;3.38;;;11.30;99.90;;;;;;5052078;28;20137;-66
2022/04/21 02:44:39;;;;;;;4.38;2.92;;;11.30;99.90;;;;;;5051962;28;20076;-66
2022/04/21 02:47:07;;;;;;;5.57;2.83;;;11.30;99.90;;;;;;5052017;28;20575;-66
2022/04/21 02:49:37;;;;;;;5.18;2.60;;;11.20;99.90;;;;;;5055399;28;20115;-67
2022/04/21 02:52:06;;;;;;;6.40;2.95;;;11.10;99.90;;;;;;5055739;28;20139;-67
2022/04/21 02:57:20;;;;;;;10.38;2.90;;;11.20;99.90;;;;;;5055713;28;20043;-67
2022/04/21 02:59:47;;;;;;;6.57;2.50;;;11.10;99.90;;;;;;5055760;28;20063;-67
2022/04/21 03:02:13;;;;;;;4.22;2.58;;;11.10;99.90;;;;;;5073803;28;20036;-66
2022/04/21 03:04:38;;;;;;;6.47;3.15;;;11.20;99.90;;;;;;5075015;28;20043;-67
2022/04/21 03:07:04;;;;;;;5.82;2.90;;;11.10;99.90;;;;;;5075610;28;20032;-66
2022/04/21 03:09:32;;;;;;;8.80;2.70;;;11.00;99.90;;;;;;5075464;28;20500;-66
2022/04/21 03:12:02;;;;;;;4.07;2.55;;;11.00;99.90;;;;;;5075490;28;20472;-66
2022/04/21 03:14:27;;;;;;;6.57;2.67;;;11.00;99.90;;;;;;5075450;28;20094;-66
2022/04/21 03:16:53;;;;;;;6.85;3.42;;;10.90;99.90;;;;;;5075235;28;20434;-66
2022/04/21 03:19:19;;;;;;;4.28;2.63;;;11.00;99.90;;;;;;5075065;28;20388;-66
2022/04/21 03:24:30;;;;;;;5.65;3.25;;;11.00;99.90;;;;;;5075354;28;20044;-66
2022/04/21 03:26:56;;;;;;;4.10;2.42;;;11.10;99.90;;;;;;5075100;28;20040;-66
2022/04/21 03:29:22;;;;;;;5.50;3.20;;;11.10;99.90;;;;;;5074968;28;20124;-66
2022/04/21 03:31:48;;;;;;;4.18;2.65;;;11.10;99.90;;;;;;5074856;28;20876;-66
2022/04/21 03:34:16;;;;;;;4.43;2.83;;;11.00;99.90;;;;;;5074779;28;20032;-66
2022/04/21 03:36:47;;;;;;;4.70;3.13;;;11.10;99.90;;;;;;5074999;28;20118;-66
2022/04/21 03:39:17;;;;;;;4.40;2.67;;;11.00;99.90;;;;;;5074850;28;20048;-66
2022/04/21 03:41:43;;;;;;;7.38;2.60;;;11.00;99.90;;;;;;5075013;28;20032;-66
2022/04/21 03:44:12;;;;;;;5.18;2.60;;;11.10;99.90;;;;;;5074744;28;20111;-66
2022/04/21 03:46:38;;;;;;;6.60;2.80;;;11.10;99.90;;;;;;5056797;28;20511;-66
2022/04/21 03:49:05;;;;;;;6.03;2.88;;;11.10;99.90;;;;;;5074457;28;20085;-66
2022/04/21 03:51:31;;;;;;;5.32;2.65;;;11.10;99.90;;;;;;5074576;28;20041;-66
2022/04/21 03:53:58;;;;;;;3.58;2.65;;;11.20;99.90;;;;;;5074714;28;20381;-66
2022/04/21 03:56:23;;;;;;;6.82;2.80;;;11.30;99.90;;;;;;5074689;28;20040;-66
2022/04/21 03:58:49;;;;;;;6.55;2.53;;;11.40;99.90;;;;;;5074499;28;20144;-66
2022/04/21 04:01:16;;;;;;;4.10;2.30;;;11.40;99.90;;;;;;5074505;28;20037;-66
2022/04/21 04:03:42;;;;;;;6.30;2.72;;;11.40;99.90;;;;;;5074397;28;20089;-66
2022/04/21 04:10:51;;;;;;;3.30;2.30;;;11.40;99.90;;;;;;5074336;28;20400;-66
2022/04/21 04:11:40;;;;;;;15.70;2.75;;;11.40;99.90;;;;;;5054351;28;20086;-66
2022/04/21 04:14:06;;;;;;;4.75;2.97;;;11.50;99.90;;;;;;5054353;28;20040;-66
2022/04/21 04:16:35;;;;;;;11.70;2.90;;;11.60;99.90;;;;;;5054250;28;20501;-66
2022/04/21 04:19:08;;;;;;;5.38;3.50;;;11.70;99.90;;;;;;5054076;28;20443;-66
2022/04/21 04:21:34;;;;;;;12.13;3.55;;;11.70;99.90;;;;;;5053955;28;20043;-66
2022/04/21 04:24:00;;;;;;;12.00;4.72;;;11.70;99.90;;;;;;5053812;28;20048;-66
2022/04/21 04:26:26;;;;;;;7.50;3.67;;;11.80;99.90;;;;;;5053969;28;20072;-66
2022/04/21 04:28:52;;;;;;;7.63;4.05;;;11.70;99.90;;;;;;5054043;28;20048;-66
2022/04/21 04:31:18;;;;;;;7.07;3.78;;;11.70;99.90;;;;;;5053862;28;20040;-66
2022/04/21 04:33:44;;;;;;;4.15;3.60;;;11.70;99.90;;;;;;5053852;28;20131;-66
2022/04/21 04:36:10;;;;;;;6.40;3.47;;;11.70;99.90;;;;;;5053701;28;20032;-66
2022/04/21 04:38:40;;;;;;;11.70;3.80;;;11.50;99.90;;;;;;5053684;28;20122;-66
2022/04/21 04:43:50;;;;;;;3.90;2.80;;;11.00;99.90;;;;;;5053583;28;20067;-66
2022/04/21 04:49:00;;;;;;;4.88;2.80;;;10.80;99.90;;;;;;5053670;28;20447;-68
2022/04/21 04:51:27;;;;;;;6.20;3.45;;;10.80;99.90;;;;;;5053577;28;20044;-66
2022/04/21 04:53:56;;;;;;;6.93;2.92;;;10.60;99.90;;;;;;5053465;28;20036;-66
2022/04/21 04:56:22;;;;;;;3.85;2.38;;;10.50;99.90;;;;;;5053432;28;20086;-66
2022/04/21 04:58:48;;;;;;;4.95;2.80;;;10.50;99.90;;;;;;5053478;28;20142;-66
2022/04/21 05:01:26;;;;;;;7.70;3.15;;;10.50;99.90;;;;;;5053392;28;20029;-66
2022/04/21 05:03:53;;;;;;;5.35;2.92;;;10.50;99.90;;;;;;5053111;28;20041;-66
2022/04/21 05:06:19;;;;;;;6.93;2.58;;;10.50;99.90;;;;;;5053113;28;20120;-66
2022/04/21 05:08:45;;;;;;;5.93;2.95;;;10.50;99.90;;;;;;5053060;28;20128;-66
2022/04/21 05:11:11;;;;;;;6.25;2.67;;;10.60;99.90;;;;;;5052765;28;20044;-66
2022/04/21 05:13:36;;;;;;;7.63;2.95;;;10.60;99.90;;;;;;5053171;28;20124;-66
2022/04/21 05:16:03;;;;;;;5.78;2.60;;;10.50;99.90;;;;;;5055644;28;20452;-66
2022/04/21 05:18:29;;;;;;;5.50;2.90;;;10.50;99.90;;;;;;5053038;28;20055;-66
2022/04/21 05:20:55;;;;;;;6.10;2.75;;;10.50;99.90;;;;;;5053175;28;20112;-66
2022/04/21 05:23:21;;;;;;;5.20;2.95;;;10.60;99.90;;;;;;5053141;28;20153;-66
2022/04/21 05:25:47;;;;;;;3.45;2.45;;;10.60;99.90;;;;;;5053066;28;20664;-66
2022/04/21 05:28:13;;;;;;;3.72;2.60;;;10.70;99.90;;;;;;5053031;28;20051;-66
2022/04/21 05:33:25;;;;;;;8.20;2.60;;;10.90;99.90;;;;;;5071921;28;20040;-66
2022/04/21 05:35:52;;;;;;;7.97;3.13;;;11.00;99.90;;;;;;5072657;28;20131;-66
2022/04/21 05:38:20;;;;;;;4.82;2.70;;;11.00;99.90;;;;;;5071707;28;20048;-66
2022/04/21 05:40:46;;;;;;;8.80;2.70;;;11.10;99.90;;;;;;5073033;28;20052;-66
2022/04/21 05:43:15;;;;;;;7.35;2.47;;;11.00;99.90;;;;;;5072903;28;20044;-66
2022/04/21 05:45:41;;;;;;;5.45;2.75;;;10.80;99.90;;;;;;5072746;28;20087;-66
2022/04/21 05:48:08;;;;;;;7.88;2.20;;;10.70;99.90;;;;;;5072678;28;20032;-66
2022/04/21 05:50:34;;;;;;;9.07;2.47;;;10.70;99.90;;;;;;5072566;28;20095;-66
2022/04/21 05:53:02;;;;;;;5.70;2.47;;;10.80;99.90;;;;;;5072719;28;20515;-66
2022/04/21 05:55:29;;;;;;;6.25;2.45;;;10.80;99.90;;;;;;5072530;28;20037;-66
2022/04/21 05:57:55;;;;;;;4.97;2.25;;;10.90;99.90;;;;;;5072952;28;20045;-66
2022/04/21 06:00:21;;;;;;;4.35;2.65;;;10.80;99.90;;;;;;5072675;28;20049;-66
2022/04/21 06:02:47;;;;;;;6.88;2.60;;;10.70;99.90;;;;;;5072741;28;20027;-66
2022/04/21 06:05:13;;;;;;;5.20;2.90;;;10.70;99.90;;;;;;5072779;28;20045;-66
2022/04/21 06:07:39;;;;;;;5.75;2.45;;;10.70;99.90;;;;;;5072666;28;20025;-66
2022/04/21 06:10:06;;;;;;;5.70;2.38;;;10.80;99.90;;;;;;5072455;28;20036;-66
2022/04/21 06:12:33;;;;;;;5.00;2.50;;;10.80;99.90;;;;;;5072566;28;20036;-66
2022/04/21 06:14:58;;;;;;;3.80;2.30;;;10.80;99.90;;;;;;5072596;28;20098;-67
2022/04/21 06:17:25;;;;;;;9.52;2.83;;;11.00;99.90;;;;;;5071539;28;20044;-66
2022/04/21 06:19:50;;;;;;;6.47;2.95;;;11.20;99.90;;;;;;5070443;28;20446;-66
2022/04/21 06:22:16;;;;;;;10.38;2.92;;;11.30;99.90;;;;;;5072361;28;20028;-66
2022/04/21 06:24:42;;;;;;;5.13;2.80;;;11.40;99.90;;;;;;5075949;28;20040;-67
2022/04/21 06:27:08;;;;;;;10.68;3.45;;;11.40;99.90;;;;;;5076280;28;20048;-67
2022/04/21 06:29:35;;;;;;;9.15;2.90;;;11.40;99.90;;;;;;5075509;28;20078;-66
2022/04/21 06:32:01;;;;;;;5.68;2.72;;;11.50;99.90;;;;;;5076250;28;20059;-67
2022/04/21 06:34:27;;;;;;;11.60;2.70;;;11.60;99.90;;;;;;5076050;28;20505;-67
2022/04/21 06:36:52;;;;;;;9.90;3.40;;;11.70;99.90;;;;;;5075937;28;20041;-66
2022/04/21 06:39:18;;;;;;;8.43;2.90;;;11.80;99.90;;;;;;5075600;28;20460;-67
2022/04/21 06:41:44;;;;;;;12.15;7.18;;;11.90;99.90;;;;;;5076043;28;20039;-66
2022/04/21 06:49:38;;;;;;;4.70;3.20;;;12.00;99.90;;;;;;5075528;28;20036;-67
2022/04/21 06:52:04;;;;;;;6.00;3.65;;;12.10;99.90;;;;;;5075552;28;20028;-66
2022/04/21 06:54:30;;;;;;;7.60;3.30;;;12.30;99.90;;;;;;5075450;28;20047;-67
2022/04/21 06:56:56;;;;;;;4.70;3.42;;;12.50;99.90;;;;;;5075560;28;20037;-66
2022/04/21 06:59:21;;;;;;;4.93;3.88;;;12.50;99.90;;;;;;5075801;28;20147;-67
2022/04/21 07:01:47;;;;;;;4.50;3.10;;;12.40;99.90;;;;;;5066616;28;20041;-67
2022/04/21 07:04:14;;;;;;;6.57;4.05;;;12.60;99.90;;;;;;5073343;28;20396;-67
2022/04/21 07:06:40;;;;;;;13.52;4.50;;;12.80;99.90;;;;;;5074969;28;20044;-67
2022/04/21 07:09:06;;;;;;;8.52;4.57;;;13.00;99.90;;;;;;5075621;28;20120;-66
2022/04/21 07:11:32;;;;;;;4.97;3.17;;;13.20;99.90;;;;;;5075425;28;20598;-67
2022/04/21 07:13:58;;;;;;;4.45;3.05;;;13.00;99.90;;;;;;5075183;28;20044;-67
2022/04/21 07:16:23;;;;;;;10.85;3.80;;;13.30;99.90;;;;;;5071479;28;20037;-67
2022/04/21 07:18:50;;;;;;;14.57;4.00;;;13.80;99.90;;;;;;5073502;28;20755;-67
2022/04/21 07:21:16;;;;;;;9.02;3.50;;;13.50;99.90;;;;;;5074790;28;20037;-67
2022/04/21 07:23:42;;;;;;;12.63;3.67;;;13.60;99.90;;;;;;5075132;28;20127;-67
2022/04/21 07:26:08;;;;;;;7.22;3.72;;;13.50;99.80;;;;;;5074798;28;20040;-67
2022/04/21 07:28:34;;;;;;;7.78;3.05;;;13.60;99.90;;;;;;5075112;28;20043;-67
2022/04/21 07:31:00;;;;;;;5.72;3.28;;;14.00;99.90;;;;;;5075101;28;20056;-67
2022/04/21 07:33:26;;;;;;;4.65;3.03;;;14.50;99.90;;;;;;5074705;28;20048;-67
2022/04/21 07:35:52;;;;;;;8.35;3.20;;;14.70;99.90;;;;;;5074618;28;20098;-67
2022/04/21 07:38:18;;;;;;;5.20;3.17;;;14.70;99.20;;;;;;5074720;28;20036;-68
2022/04/21 07:40:43;;;;;;;8.07;3.58;;;14.80;99.80;;;;;;5074854;28;20044;-67
2022/04/21 07:43:09;;;;;;;7.78;3.33;;;14.90;99.90;;;;;;5074888;28;20033;-67
2022/04/21 07:45:39;;;;;;;5.55;3.80;;;15.10;99.70;;;;;;5074738;28;20174;-67
2022/04/21 07:48:05;;;;;;;11.40;5.33;;;15.10;99.90;;;;;;5075125;28;20043;-67
2022/04/21 07:50:31;;;;;;;13.43;5.85;;;15.10;99.90;;;;;;5074872;28;20115;-67
2022/04/21 07:53:15;;;;;;;8.48;4.65;;;15.40;99.90;;;;;;5074573;28;20134;-67
2022/04/21 07:55:44;;;;;;;16.45;6.82;;;15.20;99.90;;;;;;5074528;28;20040;-67
2022/04/21 07:58:10;;;;;;;10.55;4.18;;;15.30;99.90;;;;;;5074548;28;20040;-67
2022/04/21 08:00:38;;;;;;;10.48;4.88;;;15.50;99.90;;;;;;5074822;28;20056;-67
2022/04/21 08:03:09;;;;;;;20.23;7.55;;;15.50;99.90;;;;;;5074571;28;20472;-67
2022/04/21 08:05:36;;;;;;;7.75;4.85;;;15.80;99.90;;;;;;5074409;28;20033;-67
2022/04/21 08:08:03;;;;;;;65.30;25.10;;;15.70;99.30;;;;;;5074456;28;20531;-67
2022/04/21 08:10:29;;;;;;;7.97;4.05;;;15.60;99.70;;;;;;5061692;28;20037;-67
2022/04/21 08:13:00;;;;;;;17.67;7.25;;;15.60;99.00;;;;;;5039139;28;20483;-67
2022/04/21 08:15:31;;;;;;;7.75;5.05;;;15.80;99.10;;;;;;5072130;28;20032;-67
2022/04/21 08:18:01;;;;;;;7.35;4.45;;;15.80;99.20;;;;;;5070481;28;20055;-68
2022/04/21 08:20:29;;;;;;;6.07;4.22;;;16.20;99.90;;;;;;5054729;28;20037;-67
2022/04/21 08:22:55;;;;;;;8.32;3.25;;;16.30;98.30;;;;;;5053934;28;20183;-67
2022/04/21 08:33:35;;;;;;;7.88;3.60;;;16.70;97.20;;;;;;5052054;28;20048;-66
2022/04/21 08:36:01;;;;;;;9.70;3.40;;;16.80;97.70;;;;;;5051726;28;20036;-66
2022/04/21 08:38:28;;;;;;;8.15;3.35;;;16.70;97.40;;;;;;5051842;28;20455;-67
2022/04/21 08:40:59;;;;;;;13.77;4.15;;;16.20;96.80;;;;;;5052055;28;20536;-67
2022/04/21 08:43:27;;;;;;;7.32;3.25;;;16.10;97.60;;;;;;5052262;28;20045;-67
2022/04/21 08:45:54;;;;;;;8.68;3.17;;;15.70;97.00;;;;;;5050604;28;20102;-67
2022/04/21 08:48:22;;;;;;;10.73;3.45;;;16.00;97.50;;;;;;5051830;28;20044;-67
2022/04/21 08:50:48;;;;;;;7.13;3.60;;;16.10;97.60;;;;;;5051974;28;20127;-66
2022/04/21 08:53:16;;;;;;;11.52;3.40;;;15.90;96.80;;;;;;5052774;28;20128;-67
2022/04/21 08:55:44;;;;;;;11.25;3.80;;;15.80;97.10;;;;;;5051417;28;20098;-67
2022/04/21 08:58:11;;;;;;;4.00;3.08;;;15.90;96.90;;;;;;5051958;28;20052;-68
2022/04/21 09:00:38;;;;;;;7.10;2.78;;;16.40;97.20;;;;;;5051492;28;20048;-67
2022/04/21 09:03:05;;;;;;;8.80;3.90;;;16.50;96.80;;;;;;5052750;28;20512;-68
2022/04/21 09:05:31;;;;;;;4.07;2.67;;;16.70;96.00;;;;;;5051647;28;20041;-67
2022/04/21 09:07:58;;;;;;;5.90;3.33;;;16.70;96.40;;;;;;5051404;28;20036;-68
2022/04/21 09:10:25;;;;;;;7.47;3.45;;;16.40;96.70;;;;;;5051284;28;20040;-68
2022/04/21 09:12:56;;;;;;;9.10;3.47;;;16.80;97.90;;;;;;5050826;28;20047;-67
2022/04/21 09:15:24;;;;;;;5.63;3.30;;;16.90;95.90;;;;;;5050734;28;20532;-67
2022/04/21 09:17:58;;;;;;;8.15;3.30;;;17.10;95.20;;;;;;5050788;28;20041;-67
2022/04/21 09:20:30;;;;;;;5.63;2.95;;;17.00;94.90;;;;;;5051478;28;20053;-67
2022/04/21 09:22:59;;;;;;;5.57;3.10;;;17.30;95.30;;;;;;5052729;28;20041;-67
2022/04/21 09:25:25;;;;;;;4.97;3.00;;;17.40;95.80;;;;;;5050044;28;20405;-67
2022/04/21 09:27:52;;;;;;;12.88;3.38;;;17.50;96.30;;;;;;5050690;28;20455;-67
2022/04/21 09:30:18;;;;;;;7.32;3.38;;;17.40;94.80;;;;;;5051089;28;20124;-67
2022/04/21 09:32:52;;;;;;;11.20;3.30;;;17.50;95.40;;;;;;5050838;28;20481;-67
2022/04/21 09:35:18;;;;;;;8.63;3.58;;;17.60;94.00;;;;;;5051605;28;20036;-67
2022/04/21 09:37:52;;;;;;;5.93;3.08;;;17.80;95.20;;;;;;5051172;28;20039;-67
2022/04/21 09:40:20;;;;;;;9.07;3.33;;;18.00;95.20;;;;;;5050334;28;20037;-67
2022/04/21 09:42:57;;;;;;;7.60;2.75;;;17.80;93.70;;;;;;5050646;28;20696;-67
2022/04/21 09:46:07;;;;;;;6.85;3.50;;;17.60;93.20;;;;;;5050577;28;20046;-67
2022/04/21 09:48:33;;;;;;;4.25;3.20;;;17.80;93.60;;;;;;5070066;28;20041;-67
2022/04/21 09:51:23;;;;;;;6.93;3.38;;;16.60;93.70;;;;;;5071330;28;20036;-67
2022/04/21 09:53:57;;;;;;;6.63;2.90;;;16.70;94.60;;;;;;5070473;28;20041;-67
2022/04/21 09:56:36;;;;;;;8.45;3.30;;;16.70;94.70;;;;;;5070696;28;20036;-66
2022/04/21 09:59:08;;;;;;;8.18;3.00;;;16.90;93.70;;;;;;5073803;28;20048;-67
2022/04/21 10:01:37;;;;;;;5.05;2.83;;;17.20;94.30;;;;;;5054747;28;20383;-66
2022/04/21 10:04:06;;;;;;;8.82;3.10;;;17.40;94.10;;;;;;5054305;28;20041;-67
2022/04/21 10:06:32;;;;;;;8.63;3.35;;;;;;;;;;5055344;28;20041;-66
2022/04/21 10:08:58;;;;;;;5.55;3.28;;;19.10;96.90;;;;;;5054816;28;20132;-66
2022/04/21 10:11:27;;;;;;;5.57;2.95;;;18.00;93.40;;;;;;5054532;28;20037;-67
2022/04/21 10:13:55;;;;;;;7.47;3.10;;;17.80;92.90;;;;;;5054121;28;20044;-67
2022/04/21 10:16:29;;;;;;;7.20;3.28;;;18.00;93.90;;;;;;5054488;28;20045;-66
2022/04/21 10:18:57;;;;;;;8.00;3.00;;;18.40;94.70;;;;;;5053770;28;20509;-67
2022/04/21 10:21:48;;;;;;;5.75;3.00;;;18.60;93.10;;;;;;5054315;28;20047;-67
2022/04/21 10:24:24;;;;;;;5.53;2.80;;;18.80;93.10;;;;;;5068618;28;20032;-66
2022/04/21 10:26:50;;;;;;;5.00;2.90;;;18.20;91.60;;;;;;5073819;28;20041;-66
2022/04/21 10:29:17;;;;;;;8.05;3.08;;;18.60;91.80;;;;;;5074862;28;20509;-67
2022/04/21 10:31:57;;;;;;;7.97;3.42;;;18.60;90.90;;;;;;5074918;28;20050;-67
2022/04/21 10:34:49;;;;;;;7.82;3.33;;;18.90;91.20;;;;;;5073660;28;20036;-67
2022/04/21 10:37:16;;;;;;;5.22;2.83;;;18.20;90.30;;;;;;5069183;28;20388;-67
2022/04/21 10:40:09;;;;;;;8.18;3.20;;;18.00;90.70;;;;;;5073873;28;20060;-67
2022/04/21 10:42:53;;;;;;;5.85;2.97;;;18.00;89.80;;;;;;5074041;28;20047;-67
2022/04/21 10:45:33;;;;;;;9.32;2.83;;;18.20;90.60;;;;;;5074237;28;20130;-66
2022/04/21 10:48:06;;;;;;;5.10;3.37;;;18.30;90.50;;;;;;5075052;28;20056;-66
2022/04/21 10:50:33;;;;;;;6.75;3.58;;;17.70;90.20;;;;;;5073700;28;20045;-66
2022/04/21 10:58:34;;;;;;;9.48;3.17;;;17.90;90.00;;;;;;5073650;28;20105;-66
2022/04/21 11:01:13;;;;;;;8.65;3.10;;;17.80;85.80;;;;;;5074913;28;20033;-66
2022/04/21 11:03:40;;;;;;;7.53;2.80;;;18.10;87.50;;;;;;5075331;28;20048;-67
2022/04/21 11:06:07;;;;;;;8.70;3.30;;;17.90;90.40;;;;;;5073280;28;20044;-67
2022/04/21 11:08:33;;;;;;;4.45;3.40;;;18.20;89.10;;;;;;5072523;28;20076;-67
2022/04/21 11:10:59;;;;;;;5.68;3.60;;;17.90;90.00;;;;;;5073396;28;20040;-66
2022/04/21 11:13:51;;;;;;;5.18;2.88;;;18.30;88.00;;;;;;5073132;28;20041;-67
2022/04/21 11:16:42;;;;;;;6.47;3.15;;;18.40;88.70;;;;;;5072813;28;20086;-67
2022/04/21 11:19:30;;;;;;;6.35;3.38;;;17.90;86.10;;;;;;5072977;28;20079;-67
2022/04/21 11:21:57;;;;;;;6.10;3.38;;;18.40;88.40;;;;;;5073614;28;20032;-67
2022/04/21 11:24:24;;;;;;;5.50;3.22;;;18.00;88.00;;;;;;5073507;28;20408;-67
2022/04/21 11:26:57;;;;;;;7.95;2.90;;;18.40;88.00;;;;;;5072685;28;20403;-67
2022/04/21 11:29:23;;;;;;;8.90;3.47;;;18.60;87.80;;;;;;5073234;28;20048;-67
2022/04/21 11:31:59;;;;;;;4.30;2.47;;;18.40;86.00;;;;;;5072874;28;20059;-67
2022/04/21 11:34:26;;;;;;;4.88;2.72;;;18.50;87.20;;;;;;5056879;28;20045;-67
2022/04/21 11:37:01;;;;;;;6.80;3.03;;;18.60;85.20;;;;;;5052535;28;20056;-67
2022/04/21 11:39:27;;;;;;;6.88;2.58;;;18.80;85.40;;;;;;5052802;28;20056;-67
2022/04/21 11:41:53;;;;;;;6.57;3.17;;;18.90;85.00;;;;;;5061895;28;20120;-67
2022/04/21 11:44:23;;;;;;;4.85;2.80;;;18.40;84.70;;;;;;5068896;28;20496;-68
2022/04/21 11:46:49;;;;;;;5.47;2.83;;;18.90;88.10;;;;;;5055747;28;20032;-67
2022/04/21 11:49:15;;;;;;;10.60;2.70;;;19.20;86.00;;;;;;5064769;28;20067;-67
2022/04/21 11:51:42;;;;;;;4.97;2.78;;;19.30;86.80;;;;;;5054973;28;20067;-68
2022/04/21 11:54:10;;;;;;;5.35;2.78;;;19.40;86.80;;;;;;5072193;28;20064;-68
2022/04/21 11:56:38;;;;;;;9.82;3.00;;;19.40;84.90;;;;;;5069222;28;20040;-67
2022/04/21 11:59:10;;;;;;;4.50;2.33;;;18.90;85.60;;;;;;5055560;28;20084;-67
2022/04/21 12:07:27;;;;;;;6.18;2.78;;;19.30;86.50;;;;;;4946600;29;20047;-66
2022/04/21 12:09:53;;;;;;;5.00;2.83;;;19.20;84.40;;;;;;5033700;28;20044;-66
2022/04/21 12:12:21;;;;;;;6.78;2.95;;;18.90;84.80;;;;;;5052274;28;20134;-67
2022/04/21 12:14:47;;;;;;;9.93;2.50;;;18.60;83.60;;;;;;5051792;28;20041;-67
2022/04/21 12:17:12;;;;;;;8.85;2.70;;;18.90;83.70;;;;;;5060015;28;20102;-66
2022/04/21 12:19:42;;;;;;;4.10;2.45;;;19.00;81.70;;;;;;5069461;28;20091;-67
2022/04/21 12:22:18;;;;;;;3.10;2.40;;;19.20;84.40;;;;;;5072921;28;20035;-68
2022/04/21 12:24:47;;;;;;;6.88;2.60;;;19.30;85.00;;;;;;5064866;28;20044;-67
2022/04/21 12:27:14;;;;;;;4.47;2.50;;;19.20;83.50;;;;;;5057758;28;20055;-67
2022/04/21 12:29:49;;;;;;;7.55;2.60;;;19.40;84.40;;;;;;5057410;28;20040;-67
2022/04/21 12:32:50;;;;;;;8.15;2.78;;;19.10;82.80;;;;;;5051674;28;20052;-67
2022/04/21 12:35:16;;;;;;;7.57;2.70;;;19.00;83.10;;;;;;5051291;28;20095;-67
2022/04/21 12:38:50;;;;;;;5.53;2.35;;;18.40;81.80;;;;;;5051666;28;20511;-67
2022/04/21 12:40:38;;;;;;;4.40;2.60;;;18.10;83.80;;;;;;5055316;28;20519;-67
2022/04/21 12:43:06;;;;;;;4.57;2.53;;;18.40;83.60;;;;;;5071189;28;20369;-68
2022/04/21 12:45:32;;;;;;;3.85;2.58;;;18.60;83.50;;;;;;5070855;28;20044;-67
2022/04/21 12:47:58;;;;;;;5.45;3.05;;;18.50;83.20;;;;;;5060298;28;20186;-67
2022/04/21 12:50:25;;;;;;;4.57;2.88;;;18.90;82.90;;;;;;5064465;28;20119;-68
2022/04/21 12:52:55;;;;;;;6.20;2.40;;;18.70;82.20;;;;;;5066709;28;20044;-67
2022/04/21 12:55:21;;;;;;;6.88;2.42;;;18.40;83.20;;;;;;5071230;28;20088;-67
2022/04/21 12:57:59;;;;;;;8.45;3.05;;;18.70;82.70;;;;;;5065491;28;20064;-67
2022/04/21 13:00:25;;;;;;;4.50;2.58;;;18.30;82.50;;;;;;5057282;28;20040;-66
2022/04/21 13:02:51;;;;;;;11.77;2.72;;;18.60;82.00;;;;;;5053936;28;20041;-66
2022/04/21 13:05:17;;;;;;;4.38;2.55;;;18.70;83.20;;;;;;5057852;28;20029;-67
2022/04/21 13:07:43;;;;;;;5.95;2.72;;;18.60;82.30;;;;;;5063481;28;20060;-67
2022/04/21 13:10:09;;;;;;;8.70;2.47;;;18.60;81.60;;;;;;5063638;28;20032;-67
2022/04/21 13:12:35;;;;;;;7.63;2.72;;;18.80;82.30;;;;;;5058699;28;20044;-67
2022/04/21 13:15:02;;;;;;;6.05;2.75;;;18.80;82.00;;;;;;5052394;28;20485;-66
2022/04/21 13:17:28;;;;;;;4.38;2.90;;;18.80;82.20;;;;;;5066108;28;20044;-68
2022/04/21 13:19:54;;;;;;;5.53;2.50;;;18.60;82.70;;;;;;5070041;28;20056;-67
2022/04/21 13:22:19;;;;;;;6.30;3.40;;;18.30;82.10;;;;;;5071111;28;20040;-67
2022/04/21 13:24:45;;;;;;;10.57;3.10;;;18.60;81.90;;;;;;5065173;28;20037;-67
2022/04/21 13:27:11;;;;;;;4.55;3.03;;;19.10;83.40;;;;;;5052292;28;20528;-67
2022/04/21 13:29:36;;;;;;;6.20;2.50;;;19.00;81.80;;;;;;5052566;28;20052;-67
2022/04/21 13:34:48;;;;;;;5.10;2.33;;;18.60;81.30;;;;;;5054873;28;20048;-67
2022/04/21 13:37:13;;;;;;;5.57;2.10;;;18.70;82.80;;;;;;5061454;28;20040;-67
2022/04/21 13:39:40;;;;;;;7.03;2.53;;;18.80;81.50;;;;;;5042564;28;20194;-67
2022/04/21 13:42:07;;;;;;;3.78;2.13;;;19.10;82.00;;;;;;5051799;28;20109;-67
2022/04/21 13:44:33;;;;;;;7.28;2.53;;;19.20;79.80;;;;;;5052122;28;20136;-67